Time;durP1;ratioP1;P1;durP2;ratioP2;P2;SDS_P1;SDS_P2;PMS_P1;PMS_P2;Temp;Humidity;BMP_temperature;BMP_pressure;BME280_temperature;BME280_humidity;BME280_pressure;Samples;Min_cycle;Max_cycle;Signal;HPM_P1;HPM_P2
2021/03/21 00:01:09;;;;;;;4.22;3.30;;;4.70;56.70;;;;;;5110843;27;20299;-50
2021/03/21 00:03:35;;;;;;;3.50;3.20;;;4.60;56.70;;;;;;5110544;27;20649;-50
2021/03/21 00:06:02;;;;;;;4.85;3.40;;;4.60;57.10;;;;;;5101385;28;20214;-50
2021/03/21 00:08:30;;;;;;;3.90;3.25;;;4.60;57.20;;;;;;5100673;27;20272;-50
2021/03/21 00:11:02;;;;;;;4.00;3.60;;;4.70;57.30;;;;;;5116487;27;20228;-51
2021/03/21 00:13:28;;;;;;;3.90;3.50;;;4.80;56.90;;;;;;5099399;27;20223;-50
2021/03/21 00:15:55;;;;;;;3.47;3.17;;;4.70;56.90;;;;;;5103387;27;20524;-50
2021/03/21 00:18:24;;;;;;;3.92;3.22;;;4.80;58.00;;;;;;5107810;27;20206;-50
2021/03/21 00:20:50;;;;;;;4.43;3.67;;;4.70;58.10;;;;;;5103980;27;20184;-51
2021/03/21 00:23:16;;;;;;;3.80;3.30;;;4.80;58.30;;;;;;5100720;27;20654;-50
2021/03/21 00:25:42;;;;;;;4.57;3.83;;;4.60;57.10;;;;;;5108249;27;20432;-51
2021/03/21 00:28:11;;;;;;;5.32;3.90;;;4.70;57.20;;;;;;5112417;27;20218;-50
2021/03/21 00:30:40;;;;;;;3.70;3.33;;;4.50;56.80;;;;;;5110225;27;20187;-51
2021/03/21 00:33:06;;;;;;;4.05;3.38;;;4.80;57.10;;;;;;5107336;27;20217;-51
2021/03/21 00:35:32;;;;;;;4.68;4.20;;;4.90;57.10;;;;;;5107888;27;20188;-51
2021/03/21 00:38:01;;;;;;;4.07;3.20;;;4.90;57.60;;;;;;5106774;27;20227;-51
2021/03/21 00:40:29;;;;;;;3.53;3.05;;;4.90;57.80;;;;;;5094817;27;20433;-51
2021/03/21 00:42:56;;;;;;;5.10;2.80;;;4.80;57.10;;;;;;5111727;27;20191;-51
2021/03/21 00:45:23;;;;;;;5.30;3.30;;;4.70;58.10;;;;;;5100275;27;20190;-51
2021/03/21 00:47:50;;;;;;;5.60;3.50;;;4.70;57.90;;;;;;5102900;28;20211;-51
2021/03/21 00:50:22;;;;;;;3.67;3.38;;;5.00;58.10;;;;;;5103922;27;20187;-51
2021/03/21 00:52:47;;;;;;;3.88;3.47;;;4.60;57.40;;;;;;5103526;28;20664;-51
2021/03/21 00:55:14;;;;;;;3.93;3.40;;;4.80;57.00;;;;;;5105556;27;20186;-52
2021/03/21 00:57:39;;;;;;;4.47;3.33;;;4.70;56.90;;;;;;5112038;27;20562;-51
2021/03/21 01:00:18;;;;;;;4.07;3.67;;;5.00;57.00;;;;;;5101150;27;20179;-51
2021/03/21 01:02:44;;;;;;;4.07;3.70;;;4.80;57.20;;;;;;5098230;27;20433;-51
2021/03/21 01:05:13;;;;;;;3.55;3.25;;;4.80;57.60;;;;;;5096332;28;20543;-51
2021/03/21 01:07:39;;;;;;;3.47;3.17;;;4.70;58.00;;;;;;5090981;28;20207;-51
2021/03/21 01:10:06;;;;;;;3.77;3.30;;;4.90;58.20;;;;;;5101666;27;20675;-51
2021/03/21 01:12:32;;;;;;;3.60;3.30;;;4.60;57.40;;;;;;5106318;28;20187;-51
2021/03/21 01:14:57;;;;;;;5.20;3.30;;;4.60;57.30;;;;;;5092207;28;20288;-51
2021/03/21 01:17:23;;;;;;;4.10;3.80;;;4.80;57.50;;;;;;5098187;28;20694;-50
2021/03/21 01:19:48;;;;;;;4.53;4.13;;;4.80;57.70;;;;;;5109179;27;20570;-50
2021/03/21 01:22:14;;;;;;;4.50;4.07;;;4.90;58.10;;;;;;5105579;28;20556;-50
2021/03/21 01:24:40;;;;;;;4.07;3.63;;;4.70;57.80;;;;;;5100205;28;20213;-51
2021/03/21 01:27:07;;;;;;;3.55;3.25;;;4.80;58.00;;;;;;5103911;28;20179;-50
2021/03/21 01:29:32;;;;;;;4.53;3.60;;;4.90;57.80;;;;;;5096669;28;20212;-50
2021/03/21 01:31:58;;;;;;;4.13;3.73;;;4.60;57.70;;;;;;5097058;28;20240;-51
2021/03/21 01:34:24;;;;;;;5.33;3.60;;;4.40;58.40;;;;;;5094049;28;20494;-51
2021/03/21 01:36:49;;;;;;;3.87;3.30;;;4.50;57.90;;;;;;5107205;28;20187;-51
2021/03/21 01:39:23;;;;;;;5.20;3.00;;;4.70;57.80;;;;;;5091599;28;20760;-51
2021/03/21 01:42:05;;;;;;;4.07;3.33;;;4.80;57.70;;;;;;5102694;28;20188;-51
2021/03/21 01:44:31;;;;;;;3.85;3.30;;;4.70;58.20;;;;;;5097982;28;20175;-51
2021/03/21 01:46:57;;;;;;;3.97;3.30;;;4.70;58.20;;;;;;5100766;28;20179;-51
2021/03/21 01:49:45;;;;;;;5.63;3.73;;;4.80;57.90;;;;;;5096199;28;20200;-51
2021/03/21 01:52:35;;;;;;;3.35;3.05;;;4.80;58.30;;;;;;5097999;28;20266;-50
2021/03/21 01:55:08;;;;;;;5.05;3.70;;;4.60;58.30;;;;;;5097959;28;20236;-51
2021/03/21 01:57:34;;;;;;;5.00;3.60;;;4.80;58.40;;;;;;5100754;28;20257;-51
2021/03/21 02:00:00;;;;;;;4.33;3.50;;;4.70;58.60;;;;;;5101660;28;20187;-51
2021/03/21 02:02:25;;;;;;;5.75;3.78;;;4.50;58.40;;;;;;5106376;28;20469;-51
2021/03/21 02:04:51;;;;;;;3.70;3.23;;;4.80;59.00;;;;;;5091351;28;20208;-50
2021/03/21 02:07:32;;;;;;;3.20;2.90;;;4.80;59.00;;;;;;5100689;27;20237;-51
2021/03/21 02:10:20;;;;;;;5.05;3.72;;;5.00;58.90;;;;;;5100640;28;20176;-50
2021/03/21 02:13:11;;;;;;;5.25;4.10;;;4.80;58.80;;;;;;5105220;27;20262;-50
2021/03/21 02:16:01;;;;;;;3.97;3.50;;;4.90;58.70;;;;;;5055237;27;20237;-51
2021/03/21 02:19:07;;;;;;;3.45;3.15;;;4.80;59.60;;;;;;5114035;27;20211;-51
2021/03/21 02:21:54;;;;;;;3.30;3.00;;;4.50;59.40;;;;;;5108345;27;20179;-51
2021/03/21 02:24:42;;;;;;;4.47;3.45;;;4.60;58.50;;;;;;5103146;27;20206;-50
2021/03/21 02:27:17;;;;;;;3.78;3.20;;;4.90;59.60;;;;;;5107864;27;20735;-51
2021/03/21 02:29:58;;;;;;;4.05;3.65;;;4.80;58.90;;;;;;5105589;27;20186;-51
2021/03/21 02:32:24;;;;;;;3.92;3.50;;;4.80;58.80;;;;;;5114563;27;20547;-51
2021/03/21 02:35:14;;;;;;;4.93;3.47;;;4.80;58.70;;;;;;5102675;27;20183;-51
2021/03/21 02:37:49;;;;;;;4.00;3.15;;;4.80;57.90;;;;;;5110343;27;20227;-51
2021/03/21 02:40:34;;;;;;;3.95;3.38;;;4.50;58.00;;;;;;5096308;28;20184;-51
2021/03/21 02:43:08;;;;;;;3.53;3.22;;;4.50;58.10;;;;;;5096397;28;20176;-51
2021/03/21 02:45:37;;;;;;;4.43;3.60;;;4.80;58.00;;;;;;5129614;27;20182;-51
2021/03/21 02:48:17;;;;;;;4.05;3.40;;;4.60;57.70;;;;;;5100613;27;20211;-50
2021/03/21 02:50:56;;;;;;;3.70;3.30;;;4.90;58.10;;;;;;5100181;27;20274;-50
2021/03/21 02:53:37;;;;;;;6.05;3.78;;;4.60;58.10;;;;;;5095487;27;20652;-51
2021/03/21 02:56:05;;;;;;;4.40;3.00;;;4.70;58.00;;;;;;5102782;27;20196;-50
2021/03/21 02:59:22;;;;;;;4.55;3.75;;;4.80;57.80;;;;;;5112930;27;20598;-51
2021/03/21 03:02:00;;;;;;;3.95;3.15;;;4.60;57.40;;;;;;5080237;27;20187;-50
2021/03/21 03:04:33;;;;;;;3.63;3.22;;;4.90;57.70;;;;;;5105478;27;20195;-52
2021/03/21 03:07:28;;;;;;;4.97;3.60;;;4.80;58.20;;;;;;5113365;27;20179;-51
2021/03/21 03:10:00;;;;;;;3.40;3.10;;;4.90;58.70;;;;;;5069544;27;20633;-50
2021/03/21 03:12:32;;;;;;;4.25;3.00;;;4.80;58.30;;;;;;5099805;28;20176;-51
2021/03/21 03:14:58;;;;;;;4.30;3.38;;;4.70;58.20;;;;;;5106479;27;20666;-51
2021/03/21 03:17:47;;;;;;;3.40;3.10;;;4.50;58.30;;;;;;5122563;27;20253;-50
2021/03/21 03:20:37;;;;;;;3.42;3.13;;;4.70;60.20;;;;;;5103132;28;20585;-51
2021/03/21 03:23:13;;;;;;;3.58;3.28;;;4.60;59.80;;;;;;5101598;27;20175;-51
2021/03/21 03:25:56;;;;;;;3.95;3.60;;;4.70;59.50;;;;;;5103994;28;20211;-50
2021/03/21 03:29:23;;;;;;;3.25;2.95;;;4.60;59.10;;;;;;5100654;27;20281;-50
2021/03/21 03:31:57;;;;;;;3.85;3.45;;;4.80;58.90;;;;;;5029161;28;20201;-51
2021/03/21 03:34:24;;;;;;;5.22;3.55;;;4.90;59.30;;;;;;5100577;27;20276;-51
2021/03/21 03:36:52;;;;;;;3.83;3.05;;;4.60;59.20;;;;;;5103648;27;20184;-50
2021/03/21 03:39:18;;;;;;;3.45;2.92;;;4.60;58.80;;;;;;5113239;27;20192;-50
2021/03/21 03:42:21;;;;;;;3.87;3.43;;;4.90;59.30;;;;;;5112965;27;20656;-50
2021/03/21 03:45:10;;;;;;;4.05;3.47;;;4.60;59.20;;;;;;5106883;28;20180;-50
2021/03/21 03:47:56;;;;;;;3.67;3.38;;;4.80;59.10;;;;;;5101278;27;20214;-50
2021/03/21 03:50:46;;;;;;;4.32;3.20;;;4.80;59.70;;;;;;5098710;28;20179;-50
2021/03/21 03:53:49;;;;;;;4.40;3.50;;;4.90;59.90;;;;;;5105056;27;20190;-50
2021/03/21 03:56:22;;;;;;;3.88;3.47;;;4.90;60.40;;;;;;5096243;27;20179;-50
2021/03/21 03:59:13;;;;;;;3.83;2.90;;;4.60;60.10;;;;;;5105515;27;20215;-51
2021/03/21 04:01:49;;;;;;;3.95;3.20;;;4.70;61.40;;;;;;5096162;27;20647;-51
2021/03/21 04:04:39;;;;;;;3.42;3.13;;;4.40;61.50;;;;;;5108397;28;20364;-51
2021/03/21 04:07:10;;;;;;;3.42;3.10;;;4.80;61.90;;;;;;5104696;27;20184;-51
2021/03/21 04:10:08;;;;;;;3.63;3.33;;;4.50;62.70;;;;;;5102716;28;20179;-50
2021/03/21 04:13:10;;;;;;;3.75;3.40;;;4.50;62.80;;;;;;5096648;27;20194;-50
2021/03/21 04:15:45;;;;;;;4.03;2.90;;;4.70;62.20;;;;;;5100508;27;20664;-51
2021/03/21 04:18:38;;;;;;;3.40;3.10;;;4.80;62.70;;;;;;5095076;28;20272;-51
2021/03/21 04:21:03;;;;;;;4.25;3.95;;;4.60;65.20;;;;;;5101458;27;20172;-50
2021/03/21 04:23:44;;;;;;;4.37;3.37;;;4.50;64.70;;;;;;5098385;28;20176;-51
2021/03/21 04:26:16;;;;;;;7.45;3.45;;;4.50;64.50;;;;;;5095437;27;20180;-51
2021/03/21 04:28:50;;;;;;;4.30;3.90;;;4.60;64.40;;;;;;5107133;27;20601;-51
2021/03/21 04:31:17;;;;;;;3.97;3.30;;;4.40;64.70;;;;;;5108029;28;20176;-51
2021/03/21 04:33:51;;;;;;;4.20;3.33;;;4.60;64.80;;;;;;5110348;27;20187;-51
2021/03/21 04:36:26;;;;;;;4.00;3.58;;;4.50;65.60;;;;;;5107062;28;20211;-51
2021/03/21 04:39:15;;;;;;;3.78;3.20;;;4.50;64.80;;;;;;5120773;27;20219;-51
2021/03/21 04:41:47;;;;;;;3.60;3.17;;;4.10;65.60;;;;;;5095807;28;20187;-51
2021/03/21 04:44:18;;;;;;;3.50;3.20;;;4.20;65.40;;;;;;5097666;27;20186;-51
2021/03/21 04:46:59;;;;;;;3.65;3.00;;;4.50;66.20;;;;;;5096108;27;20178;-51
2021/03/21 04:49:25;;;;;;;3.10;2.80;;;4.50;65.70;;;;;;5094605;27;20331;-51
2021/03/21 04:52:03;;;;;;;3.50;3.20;;;4.50;64.80;;;;;;5093067;27;20645;-51
2021/03/21 04:54:34;;;;;;;4.05;3.20;;;4.70;65.20;;;;;;5103776;27;20172;-50
2021/03/21 04:57:18;;;;;;;3.95;3.30;;;4.70;64.80;;;;;;5104620;27;20171;-51
2021/03/21 04:59:44;;;;;;;3.72;3.35;;;4.50;64.10;;;;;;5106051;28;20254;-51
2021/03/21 05:02:17;;;;;;;3.45;3.15;;;4.70;63.50;;;;;;5101181;28;20551;-51
2021/03/21 05:04:50;;;;;;;3.72;3.30;;;4.60;64.90;;;;;;5108217;27;20195;-50
2021/03/21 05:07:30;;;;;;;3.35;3.05;;;4.70;66.50;;;;;;5120108;27;20223;-50
2021/03/21 05:10:28;;;;;;;4.32;3.20;;;4.50;67.70;;;;;;5108705;28;20240;-51
2021/03/21 05:13:01;;;;;;;4.07;3.67;;;4.50;67.70;;;;;;5094829;28;20199;-51
2021/03/21 05:15:47;;;;;;;7.80;3.15;;;4.30;67.80;;;;;;5106876;28;20776;-51
2021/03/21 05:18:23;;;;;;;5.43;3.47;;;4.60;69.30;;;;;;5104321;28;20347;-50
2021/03/21 05:21:04;;;;;;;3.95;3.55;;;4.40;70.20;;;;;;5111859;27;20179;-50
2021/03/21 05:23:30;;;;;;;5.22;3.22;;;4.60;70.30;;;;;;5108129;27;20172;-51
2021/03/21 05:26:25;;;;;;;4.43;3.72;;;4.70;69.20;;;;;;5109864;27;20183;-51
2021/03/21 05:29:31;;;;;;;4.50;3.90;;;4.50;69.00;;;;;;5066688;28;20606;-50
2021/03/21 05:31:57;;;;;;;4.43;3.60;;;4.80;69.90;;;;;;5117912;27;20192;-51
2021/03/21 05:34:22;;;;;;;6.50;3.70;;;4.80;69.40;;;;;;5100654;27;20289;-51
2021/03/21 05:37:12;;;;;;;4.67;3.50;;;4.70;69.20;;;;;;5102375;28;20220;-50
2021/03/21 05:39:54;;;;;;;6.32;3.92;;;4.80;70.20;;;;;;5100498;28;20436;-51
2021/03/21 05:42:41;;;;;;;4.05;3.45;;;4.80;70.60;;;;;;5099960;28;20174;-51
2021/03/21 05:45:15;;;;;;;4.15;3.40;;;4.60;70.50;;;;;;5100311;28;20182;-51
2021/03/21 05:48:05;;;;;;;4.55;3.78;;;4.70;69.70;;;;;;5100172;28;20202;-51
2021/03/21 05:50:52;;;;;;;3.75;3.40;;;5.00;70.20;;;;;;5105244;28;20175;-51
2021/03/21 05:53:45;;;;;;;3.75;3.35;;;4.90;70.70;;;;;;5101726;28;20184;-50
2021/03/21 05:57:04;;;;;;;3.45;3.10;;;4.90;70.20;;;;;;5117758;28;20191;-51
2021/03/21 06:00:05;;;;;;;5.45;3.60;;;4.90;71.80;;;;;;5054183;28;20217;-51
2021/03/21 06:03:09;;;;;;;4.28;3.88;;;4.70;72.10;;;;;;5103599;28;20908;-51
2021/03/21 06:05:57;;;;;;;3.83;3.42;;;4.60;71.50;;;;;;5090719;28;20217;-50
2021/03/21 06:08:35;;;;;;;4.65;3.08;;;4.60;72.40;;;;;;5099309;28;20207;-50
2021/03/21 06:11:10;;;;;;;3.92;2.95;;;4.90;71.40;;;;;;5099231;28;20228;-50
2021/03/21 06:13:39;;;;;;;5.95;3.45;;;4.70;70.10;;;;;;5097688;28;20212;-51
2021/03/21 06:16:48;;;;;;;4.50;3.40;;;4.10;70.20;;;;;;5104177;28;20191;-50
2021/03/21 06:19:38;;;;;;;4.60;3.30;;;4.70;73.30;;;;;;5114372;27;20204;-50
2021/03/21 06:22:34;;;;;;;3.78;3.40;;;4.80;73.80;;;;;;5119442;28;20173;-51
2021/03/21 06:25:34;;;;;;;4.40;3.20;;;4.70;74.20;;;;;;5103726;28;20270;-51
2021/03/21 06:28:31;;;;;;;3.50;3.20;;;4.70;72.80;;;;;;5103822;28;20204;-51
2021/03/21 06:31:29;;;;;;;4.00;3.60;;;4.70;73.30;;;;;;5107930;28;20200;-51
2021/03/21 06:34:12;;;;;;;6.13;3.83;;;5.00;72.20;;;;;;5099493;28;20645;-51
2021/03/21 06:36:46;;;;;;;6.93;5.25;;;5.00;72.80;;;;;;5097184;28;20188;-51
2021/03/21 06:39:33;;;;;;;4.03;3.55;;;5.00;72.20;;;;;;5103775;28;20238;-50
2021/03/21 06:42:15;;;;;;;4.45;3.50;;;5.00;71.50;;;;;;5103806;28;20181;-50
2021/03/21 06:44:50;;;;;;;5.60;3.42;;;5.20;71.80;;;;;;5094514;28;20182;-51
2021/03/21 06:47:31;;;;;;;4.13;3.72;;;5.10;70.20;;;;;;5109406;28;20182;-50
2021/03/21 06:50:08;;;;;;;5.40;3.30;;;5.00;70.10;;;;;;5098715;28;20184;-52
2021/03/21 06:52:52;;;;;;;4.00;3.60;;;5.00;71.30;;;;;;5098905;28;20544;-49
2021/03/21 06:55:34;;;;;;;4.63;3.30;;;5.40;73.40;;;;;;5131976;27;20180;-50
2021/03/21 06:58:24;;;;;;;3.75;3.28;;;5.00;71.10;;;;;;5105181;28;20215;-50
2021/03/21 07:01:23;;;;;;;3.20;2.90;;;5.20;70.80;;;;;;5099994;27;20207;-48
2021/03/21 07:04:06;;;;;;;3.75;3.35;;;5.00;71.10;;;;;;5103241;27;20175;-50
2021/03/21 07:07:06;;;;;;;4.13;3.58;;;5.20;71.10;;;;;;5110925;27;20214;-52
2021/03/21 07:10:08;;;;;;;4.20;3.50;;;4.90;71.40;;;;;;5104083;27;20294;-51
2021/03/21 07:13:12;;;;;;;6.90;3.45;;;5.10;71.10;;;;;;5120196;27;20179;-52
2021/03/21 07:16:09;;;;;;;4.90;3.10;;;5.30;70.60;;;;;;5128428;27;20243;-51
2021/03/21 07:18:53;;;;;;;5.43;3.75;;;5.30;71.00;;;;;;5106005;27;20208;-52
2021/03/21 07:21:21;;;;;;;4.05;3.72;;;5.00;72.80;;;;;;5107661;27;20178;-50
2021/03/21 07:24:11;;;;;;;3.63;3.13;;;5.30;70.50;;;;;;5103870;28;20666;-50
2021/03/21 07:26:59;;;;;;;4.00;3.60;;;5.50;72.30;;;;;;5063421;27;20191;-50
2021/03/21 07:29:27;;;;;;;3.78;3.00;;;5.40;71.20;;;;;;5107596;28;20284;-51
2021/03/21 07:32:02;;;;;;;3.70;3.40;;;5.40;69.10;;;;;;5110553;27;20266;-50
2021/03/21 07:35:12;;;;;;;3.65;3.20;;;5.60;69.10;;;;;;5094157;28;20259;-50
2021/03/21 07:37:40;;;;;;;4.55;3.45;;;5.60;69.50;;;;;;5107323;28;20208;-50
2021/03/21 07:40:15;;;;;;;5.28;3.42;;;5.30;70.90;;;;;;5098731;27;20179;-50
2021/03/21 07:43:07;;;;;;;5.45;3.80;;;5.60;79.60;;;;;;5108333;27;20187;-49
2021/03/21 07:45:42;;;;;;;5.47;3.47;;;5.00;75.40;;;;;;5097430;28;20199;-49
2021/03/21 07:48:16;;;;;;;3.58;2.80;;;5.70;75.30;;;;;;5123739;27;20659;-52
2021/03/21 07:50:59;;;;;;;6.63;4.25;;;5.40;73.30;;;;;;5096795;28;20179;-52
2021/03/21 07:53:50;;;;;;;4.10;3.70;;;5.50;72.50;;;;;;5093025;28;20185;-52
2021/03/21 07:56:35;;;;;;;4.97;3.30;;;5.30;74.30;;;;;;5114920;27;20217;-52
2021/03/21 07:59:16;;;;;;;4.25;3.85;;;5.70;72.10;;;;;;5091928;28;20229;-52
2021/03/21 08:01:42;;;;;;;3.33;2.88;;;5.70;72.10;;;;;;5108428;27;20539;-52
2021/03/21 08:04:24;;;;;;;3.53;3.23;;;5.60;74.90;;;;;;5100806;28;20169;-52
2021/03/21 08:06:57;;;;;;;3.55;3.25;;;5.90;72.20;;;;;;5099590;28;20241;-52
2021/03/21 08:09:36;;;;;;;5.15;3.60;;;5.60;71.40;;;;;;5092561;27;20244;-52
2021/03/21 08:12:26;;;;;;;5.35;4.00;;;5.80;71.20;;;;;;5123780;27;20186;-52
2021/03/21 08:15:15;;;;;;;4.38;3.78;;;5.80;73.20;;;;;;5104488;27;20199;-52
2021/03/21 08:17:55;;;;;;;3.85;3.25;;;5.70;71.90;;;;;;5106502;27;20220;-52
2021/03/21 08:20:20;;;;;;;5.32;3.13;;;6.00;74.40;;;;;;5101339;27;20178;-52
2021/03/21 08:22:47;;;;;;;3.90;3.37;;;5.90;72.60;;;;;;5092606;27;20775;-52
2021/03/21 08:25:30;;;;;;;3.63;3.10;;;5.80;71.60;;;;;;5110707;27;20190;-53
2021/03/21 08:27:57;;;;;;;3.05;2.83;;;6.00;70.40;;;;;;5099241;27;20492;-52
2021/03/21 08:30:27;;;;;;;3.08;2.75;;;5.70;70.90;;;;;;5112542;27;20657;-53
2021/03/21 08:33:03;;;;;;;3.38;3.08;;;6.00;72.70;;;;;;5104650;27;20194;-52
2021/03/21 08:35:32;;;;;;;4.18;3.13;;;5.90;70.80;;;;;;5105914;27;20271;-53
2021/03/21 08:38:20;;;;;;;3.08;2.78;;;6.20;70.30;;;;;;5104006;28;20211;-53
2021/03/21 08:40:47;;;;;;;3.75;3.22;;;6.20;71.00;;;;;;5121444;27;20189;-53
2021/03/21 08:43:28;;;;;;;3.47;3.15;;;6.30;70.20;;;;;;5093464;27;20313;-52
2021/03/21 08:46:00;;;;;;;3.80;3.35;;;6.20;70.80;;;;;;5100093;28;20298;-53
2021/03/21 08:48:34;;;;;;;3.40;3.10;;;6.50;70.20;;;;;;5091780;28;20203;-52
2021/03/21 08:51:12;;;;;;;4.75;3.33;;;6.40;70.00;;;;;;5098965;28;20180;-53
2021/03/21 08:54:03;;;;;;;7.72;3.80;;;6.60;68.10;;;;;;5093880;27;20579;-52
2021/03/21 08:56:39;;;;;;;5.10;3.60;;;6.80;68.00;;;;;;5093367;27;20220;-51
2021/03/21 08:59:12;;;;;;;4.25;3.33;;;6.40;67.00;;;;;;5102132;27;20259;-49
2021/03/21 09:01:37;;;;;;;4.28;3.10;;;6.60;67.00;;;;;;5109450;27;20186;-50
2021/03/21 09:04:14;;;;;;;3.30;3.00;;;6.80;67.80;;;;;;5097597;27;20236;-51
2021/03/21 09:06:42;;;;;;;5.40;3.30;;;6.60;66.00;;;;;;5111958;27;20179;-51
2021/03/21 09:09:24;;;;;;;4.22;3.42;;;6.80;66.90;;;;;;5108536;27;20230;-49
2021/03/21 09:11:53;;;;;;;4.55;3.30;;;6.80;66.90;;;;;;5102137;27;20179;-50
2021/03/21 09:14:24;;;;;;;4.20;3.75;;;6.80;67.40;;;;;;5104421;27;20184;-51
2021/03/21 09:17:03;;;;;;;4.10;3.70;;;6.80;66.60;;;;;;5101638;27;20214;-50
2021/03/21 09:19:36;;;;;;;4.10;3.00;;;6.30;66.50;;;;;;5097996;27;20205;-50
2021/03/21 09:22:37;;;;;;;6.30;4.15;;;7.00;66.70;;;;;;5097049;27;20178;-50
2021/03/21 09:25:13;;;;;;;4.00;3.60;;;6.50;66.30;;;;;;5101093;28;20223;-50
2021/03/21 09:27:42;;;;;;;4.57;3.85;;;6.80;67.30;;;;;;5101168;28;20694;-50
2021/03/21 09:30:25;;;;;;;3.40;2.88;;;6.70;66.30;;;;;;5101465;28;20189;-49
2021/03/21 09:32:56;;;;;;;3.70;3.40;;;6.80;66.40;;;;;;5111296;28;20175;-51
2021/03/21 09:35:24;;;;;;;4.20;3.63;;;7.00;67.20;;;;;;5106733;28;20187;-51
2021/03/21 09:37:54;;;;;;;4.72;3.72;;;7.00;67.20;;;;;;5097914;27;20210;-51
2021/03/21 09:40:32;;;;;;;4.82;3.67;;;6.40;66.10;;;;;;5098387;28;20595;-50
2021/03/21 09:42:58;;;;;;;6.72;4.05;;;6.80;68.30;;;;;;5106634;28;20233;-50
2021/03/21 09:45:24;;;;;;;4.60;4.10;;;6.90;68.00;;;;;;5110767;28;20266;-50
2021/03/21 09:47:56;;;;;;;4.40;3.93;;;6.80;67.00;;;;;;5109908;28;20291;-51
2021/03/21 09:50:37;;;;;;;7.15;4.57;;;6.80;67.70;;;;;;5092516;28;20195;-52
2021/03/21 09:53:30;;;;;;;4.35;3.63;;;7.00;67.50;;;;;;5126425;28;20189;-51
2021/03/21 09:56:03;;;;;;;6.40;4.00;;;6.70;68.30;;;;;;5100428;28;20183;-50
2021/03/21 09:58:39;;;;;;;4.32;3.90;;;7.00;68.80;;;;;;5106800;28;20213;-51
2021/03/21 10:01:14;;;;;;;5.88;4.18;;;6.90;68.60;;;;;;5102955;28;20615;-50
2021/03/21 10:03:44;;;;;;;5.25;4.50;;;6.90;68.60;;;;;;5090945;28;20211;-51
2021/03/21 10:06:21;;;;;;;4.97;4.10;;;7.30;69.00;;;;;;5091832;28;20622;-51
2021/03/21 10:08:52;;;;;;;4.78;4.10;;;7.30;68.70;;;;;;5108742;28;20674;-51
2021/03/21 10:11:33;;;;;;;6.15;4.50;;;7.20;68.50;;;;;;5128023;27;20554;-50
2021/03/21 10:14:00;;;;;;;4.25;3.85;;;7.20;68.90;;;;;;5095946;28;20671;-52
2021/03/21 10:16:27;;;;;;;5.38;4.57;;;7.20;68.80;;;;;;5100727;28;20817;-50
2021/03/21 10:19:01;;;;;;;4.63;3.95;;;7.40;69.10;;;;;;5103031;28;20213;-51
2021/03/21 10:21:30;;;;;;;4.43;3.97;;;7.60;69.40;;;;;;5098548;28;20175;-50
2021/03/21 10:23:58;;;;;;;5.50;3.97;;;7.90;69.00;;;;;;5090530;28;20346;-51
2021/03/21 10:26:29;;;;;;;5.13;4.60;;;8.10;69.30;;;;;;5117601;28;20178;-51
2021/03/21 10:28:59;;;;;;;7.43;5.35;;;7.80;70.10;;;;;;5110298;27;20263;-51
2021/03/21 10:31:33;;;;;;;5.05;4.20;;;7.60;72.90;;;;;;5109760;27;20178;-50
2021/03/21 10:34:02;;;;;;;6.32;5.50;;;8.10;75.10;;;;;;5105288;28;20179;-50
2021/03/21 10:36:40;;;;;;;6.63;5.37;;;7.90;74.90;;;;;;5109497;27;20422;-52
2021/03/21 10:39:12;;;;;;;5.85;4.78;;;8.00;75.30;;;;;;5103628;28;20522;-52
2021/03/21 10:41:59;;;;;;;6.50;4.93;;;8.00;76.00;;;;;;5129237;27;20214;-52
2021/03/21 10:44:31;;;;;;;5.57;4.38;;;8.30;77.20;;;;;;5131464;27;20171;-50
2021/03/21 10:47:00;;;;;;;6.20;5.60;;;8.20;78.70;;;;;;5108733;27;20179;-50
2021/03/21 10:49:46;;;;;;;5.70;4.50;;;7.80;80.80;;;;;;5112658;27;20211;-51
2021/03/21 10:52:44;;;;;;;4.50;3.83;;;7.70;83.70;;;;;;5108555;27;20190;-52
2021/03/21 10:55:15;;;;;;;4.90;4.20;;;7.80;85.30;;;;;;5112383;27;20240;-52
2021/03/21 10:58:17;;;;;;;5.75;4.60;;;8.10;87.10;;;;;;5106081;27;20695;-51
2021/03/21 11:00:43;;;;;;;5.82;4.60;;;7.70;88.60;;;;;;5063015;27;20195;-52
2021/03/21 11:03:16;;;;;;;5.30;4.80;;;7.80;89.10;;;;;;5112449;27;20200;-51
2021/03/21 11:05:46;;;;;;;9.13;5.80;;;7.70;89.80;;;;;;5094615;27;20324;-51
2021/03/21 11:08:12;;;;;;;6.70;5.13;;;7.80;90.30;;;;;;5098440;27;20673;-52
2021/03/21 11:10:39;;;;;;;6.43;5.10;;;7.90;90.60;;;;;;5106490;27;20320;-51
2021/03/21 11:13:05;;;;;;;7.60;6.10;;;7.40;90.20;;;;;;5101421;27;20218;-51
2021/03/21 11:15:38;;;;;;;8.30;5.87;;;7.90;91.00;;;;;;5110664;27;20487;-50
2021/03/21 11:18:33;;;;;;;7.00;6.10;;;7.60;90.70;;;;;;5103382;27;20215;-52
2021/03/21 11:21:25;;;;;;;6.47;5.57;;;7.80;90.00;;;;;;5111972;27;20274;-51
2021/03/21 11:24:05;;;;;;;7.05;6.35;;;7.80;89.50;;;;;;5100929;27;20218;-51
2021/03/21 11:26:37;;;;;;;6.90;6.20;;;7.90;89.80;;;;;;5110104;27;20191;-53
2021/03/21 11:29:07;;;;;;;7.60;5.95;;;8.00;88.50;;;;;;5101673;28;20219;-51
2021/03/21 11:31:37;;;;;;;7.18;6.20;;;8.10;87.20;;;;;;5124888;27;20261;-51
2021/03/21 11:34:35;;;;;;;6.40;5.80;;;8.00;85.50;;;;;;5113500;27;20615;-51
2021/03/21 11:37:09;;;;;;;9.70;7.07;;;8.00;85.70;;;;;;5100617;28;20278;-52
2021/03/21 11:39:39;;;;;;;10.55;5.78;;;8.20;83.50;;;;;;5092775;28;20214;-51
2021/03/21 11:42:26;;;;;;;7.55;6.15;;;8.20;81.80;;;;;;5098956;27;20210;-51
2021/03/21 11:45:13;;;;;;;7.32;6.43;;;8.20;81.20;;;;;;5130044;27;20179;-51
2021/03/21 11:47:48;;;;;;;6.20;5.60;;;8.30;81.70;;;;;;5112566;27;20302;-51
2021/03/21 11:50:27;;;;;;;5.53;5.03;;;8.00;81.70;;;;;;5106509;27;20576;-52
2021/03/21 11:52:54;;;;;;;16.92;6.05;;;8.50;80.70;;;;;;5116402;27;20543;-51
2021/03/21 11:55:27;;;;;;;5.93;5.20;;;8.20;80.50;;;;;;5112965;27;20180;-52
2021/03/21 11:57:53;;;;;;;6.20;5.60;;;8.40;80.40;;;;;;5117461;27;20580;-51
2021/03/21 12:00:28;;;;;;;6.67;4.73;;;8.30;80.30;;;;;;5119710;27;20183;-51
2021/03/21 12:03:09;;;;;;;8.38;5.57;;;8.20;80.60;;;;;;5098500;27;20178;-50
2021/03/21 12:05:40;;;;;;;6.05;5.10;;;8.30;81.70;;;;;;5103125;27;20652;-49
2021/03/21 12:08:26;;;;;;;6.80;5.60;;;8.30;80.60;;;;;;5103871;28;20203;-50
2021/03/21 12:10:54;;;;;;;7.85;6.28;;;8.20;80.90;;;;;;5099705;28;20622;-48
2021/03/21 12:13:36;;;;;;;6.40;5.72;;;8.60;81.50;;;;;;5102308;28;20701;-48
2021/03/21 12:16:25;;;;;;;6.63;5.95;;;8.40;81.20;;;;;;5099388;27;20474;-50
2021/03/21 12:18:57;;;;;;;7.93;6.15;;;8.80;81.50;;;;;;5103601;27;20215;-49
2021/03/21 12:21:23;;;;;;;5.68;5.13;;;8.50;81.00;;;;;;5102733;27;20279;-51
2021/03/21 12:24:03;;;;;;;6.22;5.28;;;8.70;81.70;;;;;;5109776;27;20241;-50
2021/03/21 12:26:32;;;;;;;8.10;5.30;;;8.70;81.40;;;;;;5105889;28;20337;-50
2021/03/21 12:29:05;;;;;;;4.85;4.35;;;8.70;82.00;;;;;;5098994;27;20270;-50
2021/03/21 12:31:38;;;;;;;5.35;4.80;;;8.80;82.90;;;;;;5112767;27;20589;-50
2021/03/21 12:34:32;;;;;;;4.90;4.30;;;8.70;82.50;;;;;;5103618;27;20194;-50
2021/03/21 12:37:28;;;;;;;4.38;3.97;;;9.10;84.30;;;;;;5101637;27;20183;-50
2021/03/21 12:40:06;;;;;;;5.72;4.18;;;8.80;85.10;;;;;;5097900;28;20660;-51
2021/03/21 12:42:36;;;;;;;4.82;4.00;;;8.60;86.10;;;;;;5108950;27;20647;-50
2021/03/21 12:45:20;;;;;;;7.28;4.25;;;8.90;86.80;;;;;;5093607;27;20180;-51
2021/03/21 12:47:55;;;;;;;4.88;4.07;;;9.00;87.40;;;;;;5110759;27;20664;-50
2021/03/21 12:50:30;;;;;;;4.60;4.00;;;8.90;88.40;;;;;;5110506;27;20194;-49
2021/03/21 12:52:57;;;;;;;4.35;3.60;;;8.90;89.80;;;;;;5096640;27;20210;-50
2021/03/21 12:55:23;;;;;;;3.72;3.40;;;9.00;90.50;;;;;;5100135;27;20187;-50
2021/03/21 12:57:51;;;;;;;4.30;3.90;;;9.00;90.80;;;;;;5110989;27;20214;-49
2021/03/21 13:00:26;;;;;;;3.60;2.88;;;8.90;90.70;;;;;;5121409;27;20190;-50
2021/03/21 13:02:54;;;;;;;3.75;3.42;;;8.80;91.50;;;;;;5098814;27;20189;-50
2021/03/21 13:05:40;;;;;;;3.45;3.15;;;9.10;91.50;;;;;;5126056;27;20629;-50
2021/03/21 13:08:08;;;;;;;3.60;3.30;;;8.40;91.30;;;;;;5109772;27;20213;-50
2021/03/21 13:10:35;;;;;;;3.53;3.22;;;9.30;91.60;;;;;;5098826;28;20287;-49
2021/03/21 13:13:06;;;;;;;6.25;3.08;;;9.40;91.60;;;;;;5094035;28;20599;-49
2021/03/21 13:15:32;;;;;;;5.30;3.45;;;8.90;91.40;;;;;;5098188;27;20223;-49
2021/03/21 13:17:58;;;;;;;3.80;3.50;;;8.90;91.80;;;;;;5101058;27;20302;-49
2021/03/21 13:20:27;;;;;;;4.25;3.85;;;9.10;91.80;;;;;;5092470;27;20475;-50
2021/03/21 13:22:53;;;;;;;3.67;3.35;;;9.10;91.70;;;;;;5108321;27;20206;-51
2021/03/21 13:25:25;;;;;;;4.10;3.70;;;9.10;92.00;;;;;;5091596;28;20928;-50
2021/03/21 13:27:53;;;;;;;5.13;3.78;;;9.30;91.90;;;;;;5117538;27;20536;-51
2021/03/21 13:30:22;;;;;;;5.45;3.90;;;9.20;91.90;;;;;;5099546;28;20194;-50
2021/03/21 13:32:48;;;;;;;4.22;3.83;;;9.50;92.10;;;;;;5091346;28;20187;-50
2021/03/21 13:35:14;;;;;;;4.13;3.70;;;9.40;91.80;;;;;;5092803;28;20183;-50
2021/03/21 13:37:40;;;;;;;4.40;3.78;;;9.30;91.90;;;;;;5098639;28;20469;-51
2021/03/21 13:40:06;;;;;;;4.07;3.67;;;9.10;92.20;;;;;;5092426;28;20232;-50
2021/03/21 13:42:32;;;;;;;4.97;4.47;;;8.90;92.10;;;;;;5110515;28;20415;-50
2021/03/21 13:45:00;;;;;;;5.30;4.40;;;9.20;92.40;;;;;;5104926;28;20190;-50
2021/03/21 13:47:27;;;;;;;4.80;3.95;;;9.00;92.00;;;;;;5099395;28;20846;-51
2021/03/21 13:49:53;;;;;;;4.45;4.05;;;9.20;92.10;;;;;;5106377;28;20311;-50